sensor_id;sensor_type;location;lat;lon;timestamp;temperature;humidity
56234;DHT22;42141;53.240;6.580;2022-07-30T00:00:09;15.50;99.90
56234;DHT22;42141;53.240;6.580;2022-07-30T00:02:35;15.50;99.90
56234;DHT22;42141;53.240;6.580;2022-07-30T00:05:01;15.40;99.90
56234;DHT22;42141;53.240;6.580;2022-07-30T00:07:27;16.00;99.90
56234;DHT22;42141;53.240;6.580;2022-07-30T00:09:52;15.60;99.90
56234;DHT22;42141;53.240;6.580;2022-07-30T00:12:18;15.40;99.90
56234;DHT22;42141;53.240;6.580;2022-07-30T00:14:44;15.40;99.90
56234;DHT22;42141;53.240;6.580;2022-07-30T00:17:10;15.80;99.90
56234;DHT22;42141;53.240;6.580;2022-07-30T00:19:35;15.40;99.90
56234;DHT22;42141;53.240;6.580;2022-07-30T00:22:01;16.10;99.90
56234;DHT22;42141;53.240;6.580;2022-07-30T00:24:27;15.30;99.90
56234;DHT22;42141;53.240;6.580;2022-07-30T00:27:02;15.30;99.90
56234;DHT22;42141;53.240;6.580;2022-07-30T00:29:27;15.20;99.90
56234;DHT22;42141;53.240;6.580;2022-07-30T00:31:53;15.20;99.90
56234;DHT22;42141;53.240;6.580;2022-07-30T00:34:19;15.20;99.90
56234;DHT22;42141;53.240;6.580;2022-07-30T00:36:44;15.10;99.90
56234;DHT22;42141;53.240;6.580;2022-07-30T00:39:10;15.10;99.90
56234;DHT22;42141;53.240;6.580;2022-07-30T00:44:20;15.10;99.90
56234;DHT22;42141;53.240;6.580;2022-07-30T00:46:46;15.10;99.90
56234;DHT22;42141;53.240;6.580;2022-07-30T00:49:11;15.30;99.90
56234;DHT22;42141;53.240;6.580;2022-07-30T00:51:37;15.70;99.90
56234;DHT22;42141;53.240;6.580;2022-07-30T00:54:03;15.00;99.90
56234;DHT22;42141;53.240;6.580;2022-07-30T00:56:29;15.00;99.90
56234;DHT22;42141;53.240;6.580;2022-07-30T00:58:54;15.00;99.90
56234;DHT22;42141;53.240;6.580;2022-07-30T01:01:20;15.00;99.90
56234;DHT22;42141;53.240;6.580;2022-07-30T01:03:46;14.90;99.90
56234;DHT22;42141;53.240;6.580;2022-07-30T01:06:11;14.90;99.90
56234;DHT22;42141;53.240;6.580;2022-07-30T01:08:37;14.90;99.90
56234;DHT22;42141;53.240;6.580;2022-07-30T01:11:03;15.50;99.90
56234;DHT22;42141;53.240;6.580;2022-07-30T01:13:29;15.40;99.90
56234;DHT22;42141;53.240;6.580;2022-07-30T01:15:54;14.90;99.90
56234;DHT22;42141;53.240;6.580;2022-07-30T01:18:23;14.70;99.90
56234;DHT22;42141;53.240;6.580;2022-07-30T01:21:11;14.80;99.90
56234;DHT22;42141;53.240;6.580;2022-07-30T01:23:43;14.80;99.90
56234;DHT22;42141;53.240;6.580;2022-07-30T01:26:11;15.70;99.90
56234;DHT22;42141;53.240;6.580;2022-07-30T01:28:45;15.80;99.90
56234;DHT22;42141;53.240;6.580;2022-07-30T01:31:13;14.70;99.90
56234;DHT22;42141;53.240;6.580;2022-07-30T01:33:43;16.00;99.90
56234;DHT22;42141;53.240;6.580;2022-07-30T01:36:11;14.70;99.90
56234;DHT22;42141;53.240;6.580;2022-07-30T01:38:40;14.70;99.90
56234;DHT22;42141;53.240;6.580;2022-07-30T01:41:08;14.70;99.90
56234;DHT22;42141;53.240;6.580;2022-07-30T01:43:34;14.70;99.90
56234;DHT22;42141;53.240;6.580;2022-07-30T01:46:02;14.60;99.90
56234;DHT22;42141;53.240;6.580;2022-07-30T01:48:28;15.70;99.90
56234;DHT22;42141;53.240;6.580;2022-07-30T01:50:57;14.60;99.90
56234;DHT22;42141;53.240;6.580;2022-07-30T01:53:27;14.60;99.90
56234;DHT22;42141;53.240;6.580;2022-07-30T01:55:55;15.30;99.90
56234;DHT22;42141;53.240;6.580;2022-07-30T01:58:25;14.50;99.90
56234;DHT22;42141;53.240;6.580;2022-07-30T02:00:56;14.50;99.90
56234;DHT22;42141;53.240;6.580;2022-07-30T02:03:25;14.50;99.90
56234;DHT22;42141;53.240;6.580;2022-07-30T02:05:56;14.20;99.90
56234;DHT22;42141;53.240;6.580;2022-07-30T02:08:47;14.40;99.90
56234;DHT22;42141;53.240;6.580;2022-07-30T02:11:16;14.40;99.90
56234;DHT22;42141;53.240;6.580;2022-07-30T02:14:02;14.40;99.90
56234;DHT22;42141;53.240;6.580;2022-07-30T02:16:30;14.20;99.90
56234;DHT22;42141;53.240;6.580;2022-07-30T02:19:10;15.20;99.90
56234;DHT22;42141;53.240;6.580;2022-07-30T02:21:43;14.30;99.90
56234;DHT22;42141;53.240;6.580;2022-07-30T02:24:12;14.30;99.90
56234;DHT22;42141;53.240;6.580;2022-07-30T02:26:40;14.20;99.90
56234;DHT22;42141;53.240;6.580;2022-07-30T02:29:08;14.60;99.90
56234;DHT22;42141;53.240;6.580;2022-07-30T02:31:36;14.20;99.90
56234;DHT22;42141;53.240;6.580;2022-07-30T02:34:04;14.20;99.90
56234;DHT22;42141;53.240;6.580;2022-07-30T02:36:32;14.90;99.90
56234;DHT22;42141;53.240;6.580;2022-07-30T02:38:58;14.20;99.90
56234;DHT22;42141;53.240;6.580;2022-07-30T02:41:27;14.20;99.90
56234;DHT22;42141;53.240;6.580;2022-07-30T02:43:55;14.50;99.90
56234;DHT22;42141;53.240;6.580;2022-07-30T02:46:23;14.10;99.90
56234;DHT22;42141;53.240;6.580;2022-07-30T02:48:50;14.10;99.90
56234;DHT22;42141;53.240;6.580;2022-07-30T02:51:18;14.10;99.90
56234;DHT22;42141;53.240;6.580;2022-07-30T02:53:46;14.10;99.90
56234;DHT22;42141;53.240;6.580;2022-07-30T02:56:13;14.10;99.90
56234;DHT22;42141;53.240;6.580;2022-07-30T02:58:42;14.10;99.90
56234;DHT22;42141;53.240;6.580;2022-07-30T03:01:10;14.90;99.90
56234;DHT22;42141;53.240;6.580;2022-07-30T03:03:38;14.00;99.90
56234;DHT22;42141;53.240;6.580;2022-07-30T03:06:05;14.40;99.90
56234;DHT22;42141;53.240;6.580;2022-07-30T03:08:32;14.00;99.90
56234;DHT22;42141;53.240;6.580;2022-07-30T03:10:59;14.00;99.90
56234;DHT22;42141;53.240;6.580;2022-07-30T03:13:26;14.80;99.90
56234;DHT22;42141;53.240;6.580;2022-07-30T03:15:53;14.10;99.90
56234;DHT22;42141;53.240;6.580;2022-07-30T03:18:21;14.00;99.90
56234;DHT22;42141;53.240;6.580;2022-07-30T03:20:53;14.10;99.90
56234;DHT22;42141;53.240;6.580;2022-07-30T03:23:19;14.30;99.90
56234;DHT22;42141;53.240;6.580;2022-07-30T03:25:59;14.00;99.90
56234;DHT22;42141;53.240;6.580;2022-07-30T03:28:27;14.10;99.90
56234;DHT22;42141;53.240;6.580;2022-07-30T03:30:54;14.20;99.90
56234;DHT22;42141;53.240;6.580;2022-07-30T03:33:21;14.20;99.90
56234;DHT22;42141;53.240;6.580;2022-07-30T03:35:48;14.20;99.90
56234;DHT22;42141;53.240;6.580;2022-07-30T03:38:14;14.20;99.90
56234;DHT22;42141;53.240;6.580;2022-07-30T03:40:41;14.20;99.90
56234;DHT22;42141;53.240;6.580;2022-07-30T03:43:10;13.10;99.90
56234;DHT22;42141;53.240;6.580;2022-07-30T03:45:39;14.10;99.90
56234;DHT22;42141;53.240;6.580;2022-07-30T03:48:08;14.20;99.90
56234;DHT22;42141;53.240;6.580;2022-07-30T03:50:37;14.10;99.90
56234;DHT22;42141;53.240;6.580;2022-07-30T03:53:05;14.50;99.90
56234;DHT22;42141;53.240;6.580;2022-07-30T03:55:31;14.00;99.90
56234;DHT22;42141;53.240;6.580;2022-07-30T03:57:59;14.00;99.90
56234;DHT22;42141;53.240;6.580;2022-07-30T04:00:26;14.00;99.90
56234;DHT22;42141;53.240;6.580;2022-07-30T04:02:52;14.00;99.90
56234;DHT22;42141;53.240;6.580;2022-07-30T04:05:18;14.00;99.90
56234;DHT22;42141;53.240;6.580;2022-07-30T04:07:44;14.00;99.90
56234;DHT22;42141;53.240;6.580;2022-07-30T04:10:10;14.00;99.90
56234;DHT22;42141;53.240;6.580;2022-07-30T04:12:36;14.00;99.90
56234;DHT22;42141;53.240;6.580;2022-07-30T04:15:02;14.00;99.90
56234;DHT22;42141;53.240;6.580;2022-07-30T04:17:35;14.00;99.90
56234;DHT22;42141;53.240;6.580;2022-07-30T04:20:31;14.00;99.90
56234;DHT22;42141;53.240;6.580;2022-07-30T04:22:56;14.10;99.90
56234;DHT22;42141;53.240;6.580;2022-07-30T04:25:22;14.10;99.90
56234;DHT22;42141;53.240;6.580;2022-07-30T04:27:48;14.10;99.90
56234;DHT22;42141;53.240;6.580;2022-07-30T04:30:14;15.20;99.90
56234;DHT22;42141;53.240;6.580;2022-07-30T04:32:41;14.10;99.90
56234;DHT22;42141;53.240;6.580;2022-07-30T04:35:07;14.10;99.90
56234;DHT22;42141;53.240;6.580;2022-07-30T04:37:33;14.20;99.90
56234;DHT22;42141;53.240;6.580;2022-07-30T04:39:59;14.40;99.90
56234;DHT22;42141;53.240;6.580;2022-07-30T04:42:27;14.20;99.90
56234;DHT22;42141;53.240;6.580;2022-07-30T04:44:53;14.20;99.90
56234;DHT22;42141;53.240;6.580;2022-07-30T04:47:20;14.20;99.90
56234;DHT22;42141;53.240;6.580;2022-07-30T04:49:46;14.20;99.90
56234;DHT22;42141;53.240;6.580;2022-07-30T04:52:13;14.60;99.90
56234;DHT22;42141;53.240;6.580;2022-07-30T04:54:47;14.30;99.90
56234;DHT22;42141;53.240;6.580;2022-07-30T04:57:15;14.30;99.90
56234;DHT22;42141;53.240;6.580;2022-07-30T04:59:41;14.40;99.90
56234;DHT22;42141;53.240;6.580;2022-07-30T05:02:08;14.40;99.90
56234;DHT22;42141;53.240;6.580;2022-07-30T05:04:35;14.50;99.90
56234;DHT22;42141;53.240;6.580;2022-07-30T05:07:02;15.30;99.90
56234;DHT22;42141;53.240;6.580;2022-07-30T05:09:28;14.60;99.90
56234;DHT22;42141;53.240;6.580;2022-07-30T05:11:56;14.70;99.90
56234;DHT22;42141;53.240;6.580;2022-07-30T05:14:22;14.80;99.90
56234;DHT22;42141;53.240;6.580;2022-07-30T05:16:49;14.80;99.90
56234;DHT22;42141;53.240;6.580;2022-07-30T05:19:15;14.90;99.90
56234;DHT22;42141;53.240;6.580;2022-07-30T05:21:41;15.00;99.90
56234;DHT22;42141;53.240;6.580;2022-07-30T05:24:07;15.10;99.90
56234;DHT22;42141;53.240;6.580;2022-07-30T05:26:33;15.20;99.90
56234;DHT22;42141;53.240;6.580;2022-07-30T05:28:59;15.30;99.90
56234;DHT22;42141;53.240;6.580;2022-07-30T05:31:25;15.40;99.90
56234;DHT22;42141;53.240;6.580;2022-07-30T05:33:51;15.50;99.90
56234;DHT22;42141;53.240;6.580;2022-07-30T05:36:18;15.70;99.90
56234;DHT22;42141;53.240;6.580;2022-07-30T05:38:44;15.70;99.90
56234;DHT22;42141;53.240;6.580;2022-07-30T05:41:10;15.80;99.90
56234;DHT22;42141;53.240;6.580;2022-07-30T05:43:36;15.80;99.90
56234;DHT22;42141;53.240;6.580;2022-07-30T05:46:02;16.00;99.90
56234;DHT22;42141;53.240;6.580;2022-07-30T05:48:28;16.30;99.90
56234;DHT22;42141;53.240;6.580;2022-07-30T05:50:56;16.20;99.90
56234;DHT22;42141;53.240;6.580;2022-07-30T05:53:21;16.20;99.90
56234;DHT22;42141;53.240;6.580;2022-07-30T05:55:47;16.40;99.90
56234;DHT22;42141;53.240;6.580;2022-07-30T05:58:13;16.50;99.90
56234;DHT22;42141;53.240;6.580;2022-07-30T06:00:38;16.70;99.90
56234;DHT22;42141;53.240;6.580;2022-07-30T06:03:04;16.80;99.90
56234;DHT22;42141;53.240;6.580;2022-07-30T06:05:30;16.90;99.90
56234;DHT22;42141;53.240;6.580;2022-07-30T06:07:57;17.10;99.90
56234;DHT22;42141;53.240;6.580;2022-07-30T06:10:23;17.10;99.90
56234;DHT22;42141;53.240;6.580;2022-07-30T06:12:48;17.30;99.90
56234;DHT22;42141;53.240;6.580;2022-07-30T06:15:14;17.40;99.90
56234;DHT22;42141;53.240;6.580;2022-07-30T06:17:44;17.40;99.90
56234;DHT22;42141;53.240;6.580;2022-07-30T06:20:13;17.60;99.90
56234;DHT22;42141;53.240;6.580;2022-07-30T06:22:38;17.70;99.90
56234;DHT22;42141;53.240;6.580;2022-07-30T06:25:05;17.70;99.90
56234;DHT22;42141;53.240;6.580;2022-07-30T06:27:31;17.80;99.90
56234;DHT22;42141;53.240;6.580;2022-07-30T06:29:59;17.90;99.90
56234;DHT22;42141;53.240;6.580;2022-07-30T06:32:24;18.00;99.90
56234;DHT22;42141;53.240;6.580;2022-07-30T06:34:50;18.10;99.90
56234;DHT22;42141;53.240;6.580;2022-07-30T06:37:16;18.20;99.90
56234;DHT22;42141;53.240;6.580;2022-07-30T06:39:42;18.20;99.90
56234;DHT22;42141;53.240;6.580;2022-07-30T06:42:07;18.30;99.90
56234;DHT22;42141;53.240;6.580;2022-07-30T06:44:33;18.40;99.90
56234;DHT22;42141;53.240;6.580;2022-07-30T06:46:59;18.50;99.90
56234;DHT22;42141;53.240;6.580;2022-07-30T06:49:25;18.50;99.90
56234;DHT22;42141;53.240;6.580;2022-07-30T06:51:51;18.70;99.90
56234;DHT22;42141;53.240;6.580;2022-07-30T06:54:16;18.80;99.90
56234;DHT22;42141;53.240;6.580;2022-07-30T06:56:42;18.90;99.90
56234;DHT22;42141;53.240;6.580;2022-07-30T06:59:08;19.00;99.90
56234;DHT22;42141;53.240;6.580;2022-07-30T07:01:33;19.10;99.90
56234;DHT22;42141;53.240;6.580;2022-07-30T07:03:59;19.20;99.90
56234;DHT22;42141;53.240;6.580;2022-07-30T07:06:25;19.30;99.90
56234;DHT22;42141;53.240;6.580;2022-07-30T07:08:50;19.30;99.90
56234;DHT22;42141;53.240;6.580;2022-07-30T07:11:16;19.50;99.90
56234;DHT22;42141;53.240;6.580;2022-07-30T07:13:42;19.50;99.90
56234;DHT22;42141;53.240;6.580;2022-07-30T07:16:07;19.60;99.90
56234;DHT22;42141;53.240;6.580;2022-07-30T07:18:33;19.70;99.90
56234;DHT22;42141;53.240;6.580;2022-07-30T07:20:59;19.80;99.90
56234;DHT22;42141;53.240;6.580;2022-07-30T07:23:25;19.90;99.90
56234;DHT22;42141;53.240;6.580;2022-07-30T07:25:51;20.00;99.90
56234;DHT22;42141;53.240;6.580;2022-07-30T07:28:17;20.10;99.90
56234;DHT22;42141;53.240;6.580;2022-07-30T07:30:43;20.30;99.90
56234;DHT22;42141;53.240;6.580;2022-07-30T07:33:09;20.30;99.90
56234;DHT22;42141;53.240;6.580;2022-07-30T07:35:35;20.50;99.90
56234;DHT22;42141;53.240;6.580;2022-07-30T07:38:01;20.50;99.90
56234;DHT22;42141;53.240;6.580;2022-07-30T07:40:26;20.70;99.90
56234;DHT22;42141;53.240;6.580;2022-07-30T07:42:52;20.80;99.90
56234;DHT22;42141;53.240;6.580;2022-07-30T07:45:18;20.90;99.90
56234;DHT22;42141;53.240;6.580;2022-07-30T07:47:45;21.00;99.90
56234;DHT22;42141;53.240;6.580;2022-07-30T07:50:14;21.10;99.90
56234;DHT22;42141;53.240;6.580;2022-07-30T07:52:40;21.30;99.90
56234;DHT22;42141;53.240;6.580;2022-07-30T07:55:06;21.40;99.90
56234;DHT22;42141;53.240;6.580;2022-07-30T07:57:40;21.50;99.90
56234;DHT22;42141;53.240;6.580;2022-07-30T08:00:08;21.60;99.90
56234;DHT22;42141;53.240;6.580;2022-07-30T08:02:34;21.80;99.90
56234;DHT22;42141;53.240;6.580;2022-07-30T08:05:01;21.90;99.90
56234;DHT22;42141;53.240;6.580;2022-07-30T08:07:27;22.00;99.90
56234;DHT22;42141;53.240;6.580;2022-07-30T08:09:53;22.10;99.90
56234;DHT22;42141;53.240;6.580;2022-07-30T08:12:19;22.20;99.90
56234;DHT22;42141;53.240;6.580;2022-07-30T08:14:44;22.30;99.90
56234;DHT22;42141;53.240;6.580;2022-07-30T08:17:10;22.40;99.90
56234;DHT22;42141;53.240;6.580;2022-07-30T08:19:36;22.40;99.90
56234;DHT22;42141;53.240;6.580;2022-07-30T08:22:02;22.60;99.90
56234;DHT22;42141;53.240;6.580;2022-07-30T08:24:27;22.60;99.90
56234;DHT22;42141;53.240;6.580;2022-07-30T08:26:53;22.70;99.90
56234;DHT22;42141;53.240;6.580;2022-07-30T08:29:19;22.70;99.90
56234;DHT22;42141;53.240;6.580;2022-07-30T08:31:44;22.80;99.90
56234;DHT22;42141;53.240;6.580;2022-07-30T08:34:10;22.90;99.90
56234;DHT22;42141;53.240;6.580;2022-07-30T08:36:37;22.80;99.90
56234;DHT22;42141;53.240;6.580;2022-07-30T08:39:03;22.80;99.90
56234;DHT22;42141;53.240;6.580;2022-07-30T08:41:29;22.80;99.90
56234;DHT22;42141;53.240;6.580;2022-07-30T08:43:59;22.70;99.90
56234;DHT22;42141;53.240;6.580;2022-07-30T08:46:26;22.80;99.90
56234;DHT22;42141;53.240;6.580;2022-07-30T08:48:54;23.00;99.90
56234;DHT22;42141;53.240;6.580;2022-07-30T08:51:22;23.10;99.90
56234;DHT22;42141;53.240;6.580;2022-07-30T08:53:48;23.20;99.90
56234;DHT22;42141;53.240;6.580;2022-07-30T08:56:14;23.30;99.90
56234;DHT22;42141;53.240;6.580;2022-07-30T08:58:40;23.40;99.90
56234;DHT22;42141;53.240;6.580;2022-07-30T09:01:07;23.30;99.90
56234;DHT22;42141;53.240;6.580;2022-07-30T09:03:37;23.30;99.90
56234;DHT22;42141;53.240;6.580;2022-07-30T09:06:04;23.40;99.90
56234;DHT22;42141;53.240;6.580;2022-07-30T09:08:30;23.50;99.90
56234;DHT22;42141;53.240;6.580;2022-07-30T09:10:56;23.70;99.90
56234;DHT22;42141;53.240;6.580;2022-07-30T09:13:24;23.90;99.90
56234;DHT22;42141;53.240;6.580;2022-07-30T09:15:50;24.00;99.90
56234;DHT22;42141;53.240;6.580;2022-07-30T09:18:37;23.90;99.90
56234;DHT22;42141;53.240;6.580;2022-07-30T09:21:24;23.80;99.90
56234;DHT22;42141;53.240;6.580;2022-07-30T09:23:59;23.90;99.90
56234;DHT22;42141;53.240;6.580;2022-07-30T09:26:25;23.90;99.90
56234;DHT22;42141;53.240;6.580;2022-07-30T09:28:51;24.00;99.90
56234;DHT22;42141;53.240;6.580;2022-07-30T09:31:18;24.00;99.90
56234;DHT22;42141;53.240;6.580;2022-07-30T09:33:45;24.10;99.90
56234;DHT22;42141;53.240;6.580;2022-07-30T09:36:15;24.10;99.90
56234;DHT22;42141;53.240;6.580;2022-07-30T09:41:10;24.20;99.90
56234;DHT22;42141;53.240;6.580;2022-07-30T09:43:50;24.10;99.90
56234;DHT22;42141;53.240;6.580;2022-07-30T09:46:17;24.00;99.90
56234;DHT22;42141;53.240;6.580;2022-07-30T09:48:43;24.20;99.90
56234;DHT22;42141;53.240;6.580;2022-07-30T09:51:11;24.30;99.90
56234;DHT22;42141;53.240;6.580;2022-07-30T09:53:55;24.40;99.90
56234;DHT22;42141;53.240;6.580;2022-07-30T09:56:27;24.60;99.90
56234;DHT22;42141;53.240;6.580;2022-07-30T09:58:54;24.70;99.90
56234;DHT22;42141;53.240;6.580;2022-07-30T10:01:20;24.70;99.90
56234;DHT22;42141;53.240;6.580;2022-07-30T10:03:46;24.70;99.90
56234;DHT22;42141;53.240;6.580;2022-07-30T10:06:12;24.70;99.90
56234;DHT22;42141;53.240;6.580;2022-07-30T10:11:05;24.70;99.90
56234;DHT22;42141;53.240;6.580;2022-07-30T10:13:32;24.60;99.90
56234;DHT22;42141;53.240;6.580;2022-07-30T10:15:59;24.70;99.90
56234;DHT22;42141;53.240;6.580;2022-07-30T10:18:26;24.80;99.90
56234;DHT22;42141;53.240;6.580;2022-07-30T10:20:53;24.90;99.90
56234;DHT22;42141;53.240;6.580;2022-07-30T10:23:18;24.90;99.90
56234;DHT22;42141;53.240;6.580;2022-07-30T10:25:45;25.20;99.90
56234;DHT22;42141;53.240;6.580;2022-07-30T10:28:11;25.30;99.90
56234;DHT22;42141;53.240;6.580;2022-07-30T10:30:38;25.40;99.90
56234;DHT22;42141;53.240;6.580;2022-07-30T10:33:06;25.50;99.90
56234;DHT22;42141;53.240;6.580;2022-07-30T10:35:32;25.60;99.90
56234;DHT22;42141;53.240;6.580;2022-07-30T10:37:58;25.70;99.90
56234;DHT22;42141;53.240;6.580;2022-07-30T10:40:29;25.70;99.90
56234;DHT22;42141;53.240;6.580;2022-07-30T10:45:47;25.90;99.90
56234;DHT22;42141;53.240;6.580;2022-07-30T10:48:16;26.10;99.90
56234;DHT22;42141;53.240;6.580;2022-07-30T10:50:56;26.20;99.90
56234;DHT22;42141;53.240;6.580;2022-07-30T10:53:32;26.40;98.90
56234;DHT22;42141;53.240;6.580;2022-07-30T10:56:31;26.50;97.70
56234;DHT22;42141;53.240;6.580;2022-07-30T11:01:22;26.70;99.70
56234;DHT22;42141;53.240;6.580;2022-07-30T11:04:24;26.70;99.60
56234;DHT22;42141;53.240;6.580;2022-07-30T11:06:52;26.60;97.30
56234;DHT22;42141;53.240;6.580;2022-07-30T11:09:42;26.50;99.20
56234;DHT22;42141;53.240;6.580;2022-07-30T11:12:08;26.20;98.40
56234;DHT22;42141;53.240;6.580;2022-07-30T11:17:14;25.90;99.10
56234;DHT22;42141;53.240;6.580;2022-07-30T11:22:35;25.90;98.90
56234;DHT22;42141;53.240;6.580;2022-07-30T11:27:50;25.80;99.30
56234;DHT22;42141;53.240;6.580;2022-07-30T11:32:48;25.90;99.50
56234;DHT22;42141;53.240;6.580;2022-07-30T11:35:32;25.90;99.60
56234;DHT22;42141;53.240;6.580;2022-07-30T11:43:31;26.30;99.00
56234;DHT22;42141;53.240;6.580;2022-07-30T11:46:14;26.50;98.80
56234;DHT22;42141;53.240;6.580;2022-07-30T11:49:03;26.50;96.60
56234;DHT22;42141;53.240;6.580;2022-07-30T11:51:46;26.40;96.60
56234;DHT22;42141;53.240;6.580;2022-07-30T11:54:12;26.30;97.10
56234;DHT22;42141;53.240;6.580;2022-07-30T11:56:53;26.40;97.70
56234;DHT22;42141;53.240;6.580;2022-07-30T11:59:19;26.60;96.90
56234;DHT22;42141;53.240;6.580;2022-07-30T12:01:51;26.70;96.50
56234;DHT22;42141;53.240;6.580;2022-07-30T12:04:18;26.70;94.50
56234;DHT22;42141;53.240;6.580;2022-07-30T12:06:45;26.50;94.90
56234;DHT22;42141;53.240;6.580;2022-07-30T12:09:12;26.30;95.30
56234;DHT22;42141;53.240;6.580;2022-07-30T12:11:45;26.20;95.60
56234;DHT22;42141;53.240;6.580;2022-07-30T12:14:11;26.00;95.30
56234;DHT22;42141;53.240;6.580;2022-07-30T12:16:38;25.90;94.80
56234;DHT22;42141;53.240;6.580;2022-07-30T12:19:06;25.80;94.80
56234;DHT22;42141;53.240;6.580;2022-07-30T12:21:33;25.60;96.60
56234;DHT22;42141;53.240;6.580;2022-07-30T12:24:01;25.60;97.80
56234;DHT22;42141;53.240;6.580;2022-07-30T12:26:31;25.60;98.70
56234;DHT22;42141;53.240;6.580;2022-07-30T12:29:00;25.80;98.90
56234;DHT22;42141;53.240;6.580;2022-07-30T12:31:26;26.20;98.30
56234;DHT22;42141;53.240;6.580;2022-07-30T12:33:55;26.50;98.20
56234;DHT22;42141;53.240;6.580;2022-07-30T12:36:33;26.70;98.10
56234;DHT22;42141;53.240;6.580;2022-07-30T12:39:00;26.70;96.80
56234;DHT22;42141;53.240;6.580;2022-07-30T12:41:44;26.70;96.40
56234;DHT22;42141;53.240;6.580;2022-07-30T12:44:33;26.60;94.10
56234;DHT22;42141;53.240;6.580;2022-07-30T12:47:00;26.50;96.10
56234;DHT22;42141;53.240;6.580;2022-07-30T12:49:29;26.40;97.10
56234;DHT22;42141;53.240;6.580;2022-07-30T12:51:55;26.20;97.60
56234;DHT22;42141;53.240;6.580;2022-07-30T12:54:21;26.10;97.30
56234;DHT22;42141;53.240;6.580;2022-07-30T12:59:28;26.20;95.60
56234;DHT22;42141;53.240;6.580;2022-07-30T13:01:55;26.40;94.90
56234;DHT22;42141;53.240;6.580;2022-07-30T13:04:28;26.40;94.70
56234;DHT22;42141;53.240;6.580;2022-07-30T13:07:04;26.60;94.30
56234;DHT22;42141;53.240;6.580;2022-07-30T13:09:30;26.60;93.10
56234;DHT22;42141;53.240;6.580;2022-07-30T13:11:56;26.50;94.20
56234;DHT22;42141;53.240;6.580;2022-07-30T13:14:22;26.50;93.50
56234;DHT22;42141;53.240;6.580;2022-07-30T13:16:48;26.60;92.40
56234;DHT22;42141;53.240;6.580;2022-07-30T13:19:13;26.60;90.70
56234;DHT22;42141;53.240;6.580;2022-07-30T13:21:40;26.80;89.80
56234;DHT22;42141;53.240;6.580;2022-07-30T13:24:07;26.90;90.00
56234;DHT22;42141;53.240;6.580;2022-07-30T13:26:33;27.10;89.70
56234;DHT22;42141;53.240;6.580;2022-07-30T13:29:00;27.30;87.50
56234;DHT22;42141;53.240;6.580;2022-07-30T13:31:26;27.30;86.60
56234;DHT22;42141;53.240;6.580;2022-07-30T13:33:52;27.30;88.50
56234;DHT22;42141;53.240;6.580;2022-07-30T13:36:18;27.20;86.70
56234;DHT22;42141;53.240;6.580;2022-07-30T13:38:44;27.20;86.20
56234;DHT22;42141;53.240;6.580;2022-07-30T13:41:10;27.20;85.90
56234;DHT22;42141;53.240;6.580;2022-07-30T13:43:36;27.30;84.80
56234;DHT22;42141;53.240;6.580;2022-07-30T13:46:03;27.20;83.90
56234;DHT22;42141;53.240;6.580;2022-07-30T13:48:30;27.10;84.70
56234;DHT22;42141;53.240;6.580;2022-07-30T13:50:58;27.20;87.10
56234;DHT22;42141;53.240;6.580;2022-07-30T13:53:24;27.30;83.10
56234;DHT22;42141;53.240;6.580;2022-07-30T13:55:50;27.30;79.70
56234;DHT22;42141;53.240;6.580;2022-07-30T13:58:16;27.20;79.00
56234;DHT22;42141;53.240;6.580;2022-07-30T14:00:42;27.10;77.30
56234;DHT22;42141;53.240;6.580;2022-07-30T14:03:10;27.20;77.80
56234;DHT22;42141;53.240;6.580;2022-07-30T14:05:36;27.20;78.80
56234;DHT22;42141;53.240;6.580;2022-07-30T14:08:05;27.20;78.00
56234;DHT22;42141;53.240;6.580;2022-07-30T14:10:32;27.10;74.70
56234;DHT22;42141;53.240;6.580;2022-07-30T14:12:59;27.00;73.30
56234;DHT22;42141;53.240;6.580;2022-07-30T14:15:28;27.00;75.10
56234;DHT22;42141;53.240;6.580;2022-07-30T14:17:56;26.70;76.00
56234;DHT22;42141;53.240;6.580;2022-07-30T14:20:22;26.60;77.70
56234;DHT22;42141;53.240;6.580;2022-07-30T14:22:48;26.50;78.50
56234;DHT22;42141;53.240;6.580;2022-07-30T14:25:14;26.40;81.30
56234;DHT22;42141;53.240;6.580;2022-07-30T14:27:40;26.40;81.60
56234;DHT22;42141;53.240;6.580;2022-07-30T14:30:08;26.40;80.90
56234;DHT22;42141;53.240;6.580;2022-07-30T14:32:35;26.40;83.80
56234;DHT22;42141;53.240;6.580;2022-07-30T14:35:01;26.30;86.00
56234;DHT22;42141;53.240;6.580;2022-07-30T14:37:27;26.30;87.30
56234;DHT22;42141;53.240;6.580;2022-07-30T14:39:53;26.40;88.90
56234;DHT22;42141;53.240;6.580;2022-07-30T14:42:19;26.40;87.20
56234;DHT22;42141;53.240;6.580;2022-07-30T14:44:45;26.50;88.70
56234;DHT22;42141;53.240;6.580;2022-07-30T14:47:12;26.50;88.00
56234;DHT22;42141;53.240;6.580;2022-07-30T14:49:38;26.50;86.40
56234;DHT22;42141;53.240;6.580;2022-07-30T14:52:04;26.40;85.00
56234;DHT22;42141;53.240;6.580;2022-07-30T14:54:30;26.40;83.90
56234;DHT22;42141;53.240;6.580;2022-07-30T14:56:56;26.40;84.10
56234;DHT22;42141;53.240;6.580;2022-07-30T14:59:22;26.40;83.60
56234;DHT22;42141;53.240;6.580;2022-07-30T15:01:48;26.30;84.60
56234;DHT22;42141;53.240;6.580;2022-07-30T15:04:14;26.20;84.40
56234;DHT22;42141;53.240;6.580;2022-07-30T15:06:40;26.10;80.10
56234;DHT22;42141;53.240;6.580;2022-07-30T15:09:07;25.90;77.70
56234;DHT22;42141;53.240;6.580;2022-07-30T15:11:33;25.80;80.00
56234;DHT22;42141;53.240;6.580;2022-07-30T15:13:59;25.50;82.80
56234;DHT22;42141;53.240;6.580;2022-07-30T15:16:24;25.30;84.00
56234;DHT22;42141;53.240;6.580;2022-07-30T15:18:50;25.30;85.80
56234;DHT22;42141;53.240;6.580;2022-07-30T15:21:16;25.20;85.50
56234;DHT22;42141;53.240;6.580;2022-07-30T15:23:42;25.10;84.50
56234;DHT22;42141;53.240;6.580;2022-07-30T15:26:08;25.10;82.80
56234;DHT22;42141;53.240;6.580;2022-07-30T15:28:33;25.00;83.00
56234;DHT22;42141;53.240;6.580;2022-07-30T15:30:59;24.80;85.20
56234;DHT22;42141;53.240;6.580;2022-07-30T15:33:25;24.80;88.60
56234;DHT22;42141;53.240;6.580;2022-07-30T15:35:51;24.70;90.50
56234;DHT22;42141;53.240;6.580;2022-07-30T15:38:17;24.60;91.30
56234;DHT22;42141;53.240;6.580;2022-07-30T15:40:43;24.50;91.60
56234;DHT22;42141;53.240;6.580;2022-07-30T15:43:08;24.40;92.10
56234;DHT22;42141;53.240;6.580;2022-07-30T15:45:34;24.30;92.50
56234;DHT22;42141;53.240;6.580;2022-07-30T15:48:00;24.20;93.10
56234;DHT22;42141;53.240;6.580;2022-07-30T15:50:27;24.00;93.70
56234;DHT22;42141;53.240;6.580;2022-07-30T15:52:53;23.80;93.80
56234;DHT22;42141;53.240;6.580;2022-07-30T15:55:19;23.70;94.20
56234;DHT22;42141;53.240;6.580;2022-07-30T15:57:44;23.60;94.20
56234;DHT22;42141;53.240;6.580;2022-07-30T16:00:11;23.50;93.90
56234;DHT22;42141;53.240;6.580;2022-07-30T16:02:37;23.50;93.90
56234;DHT22;42141;53.240;6.580;2022-07-30T16:05:04;23.50;94.00